Tetide — IVTN — position and weather

sailwx.info

Track history (hours):
 
Tides and Currents Weather Stations Pressure Air Temp Water Temp Dewpoint Dewpoint Depression Visibility Wind Speed Wind Dir Waves Ship Positions

Tetide

Last reported at 2015-Jan-26 15:17 UTC. Time now 2015-Jan-26 22:34 UTC.
Position N 41°05' E 013°33'.

Length 70 m; draft 3.6 m.

Type: Passenger vessel. MMSI: 247043100.

Date/timePositionNaut miles runAvg speedWind from/ knotsBaromVisibWave heightAir tempDewpointWater temp
2015-Jan-26 15:17N 41°05' E 013°33'1014.2
2015-Jan-26 14:34N 40°55' E 013°29'8 1.9
2015-Jan-26 10:22N 40°48' E 013°26'1213.7
2015-Jan-26 09:27N 40°60' E 013°30'4 0.2
2015-Jan-25 15:10N 41°04' E 013°32'914.3
2015-Jan-25 14:33N 40°55' E 013°29'8 2.5
2015-Jan-25 11:27N 40°48' E 013°26'0 0.1
2015-Jan-25 10:16N 40°48' E 013°26'1114.8
2015-Jan-25 09:29N 40°59' E 013°29'5 0.2
2015-Jan-24 15:06N 41°03' E 013°32'814.3
2015-Jan-24 14:33N 40°56' E 013°29'8 1.9
2015-Jan-24 10:17N 40°48' E 013°26'1214.1
2015-Jan-24 09:27N 40°59' E 013°30'1714.2
2015-Jan-24 08:17N 41°15' E 013°37'12 0.7
2015-Jan-23 15:10N 41°04' E 013°33'914.3
2015-Jan-23 14:33N 40°55' E 013°29'8 6.7
2015-Jan-23 13:24N 40°48' E 013°26'0 0.0
2015-Jan-23 12:30N 40°48' E 013°26'1 1.1
2015-Jan-23 11:31N 40°49' E 013°26'1515.0
2015-Jan-23 10:32N 41°03' E 013°32'0 0.0
2015-Jan-22 15:09N 41°03' E 013°32'914.2
2015-Jan-22 14:31N 40°54' E 013°29'7 3.4
2015-Jan-22 12:31N 40°48' E 013°26'0 0.0
2015-Jan-22 10:23N 40°48' E 013°26'1113.5
2015-Jan-22 09:33N 40°59' E 013°30'10 0.5
2015-Jan-21 15:24N 41°08' E 013°35'1315.0
2015-Jan-21 14:33N 40°56' E 013°29'8 2.7
2015-Jan-21 11:33N 40°48' E 013°26'0 0.0
2015-Jan-21 10:21N 40°48' E 013°26'1213.9
2015-Jan-21 09:29N 40°60' E 013°30'1614.8
2015-Jan-21 08:26N 41°14' E 013°37'1 0.4
2015-Jan-21 06:19N 41°15' E 013°37'0 0.0
2015-Jan-20 21:31N 41°15' E 013°37'10 1.6
2015-Jan-20 15:16N 41°05' E 013°34'1014.9
2015-Jan-20 14:33N 40°56' E 013°29'8 3.7
2015-Jan-20 12:25N 40°48' E 013°26'0 0.0
2015-Jan-20 11:33N 40°48' E 013°26'0 0.0
2015-Jan-20 10:22N 40°48' E 013°26'1214.0
2015-Jan-20 09:32N 40°59' E 013°30'7 0.4
2015-Jan-19 15:18N 41°06' E 013°34'1115.0
2015-Jan-19 14:33N 40°55' E 013°29'8 7.6
2015-Jan-19 13:32N 40°48' E 013°26'0 0.0
2015-Jan-19 12:32N 40°48' E 013°26'0 0.0
2015-Jan-19 11:29N 40°48' E 013°26'0 0.0
2015-Jan-19 10:32N 40°48' E 013°26'1311.5
2015-Jan-19 09:24N 41°01' E 013°31'1514.8
2015-Jan-19 08:24N 41°15' E 013°37'1 0.7
2015-Jan-19 07:15N 41°15' E 013°37'0 0.0
2015-Jan-18 21:28N 41°15' E 013°37'5 1.2
2015-Jan-18 17:07N 41°10' E 013°35'1314.6
2015-Jan-18 16:13N 40°58' E 013°30'1014.2
2015-Jan-18 15:31N 40°48' E 013°26'0 0.3
2015-Jan-18 14:17N 40°48' E 013°26'0 0.0
2015-Jan-18 12:15N 40°48' E 013°26'0 0.0
2015-Jan-18 11:05N 40°48' E 013°26'812.7
2015-Jan-18 10:30N 40°55' E 013°28'2015.0
2015-Jan-18 09:10N 41°14' E 013°37'1 0.1
2015-Jan-17 16:14N 41°15' E 013°37'1011.1
2015-Jan-17 15:20N 41°06' E 013°34'1114.4
2015-Jan-17 14:33N 40°55' E 013°29'7 1.8
2015-Jan-17 10:25N 40°48' E 013°26'1213.4
2015-Jan-17 09:30N 40°60' E 013°31'16 2.0
2015-Jan-17 01:20N 41°15' E 013°37'7 0.7
2015-Jan-16 15:29N 41°09' E 013°35'  
Track history (hours):
 
Tides and Currents Weather Stations Pressure Air Temp Water Temp Dewpoint Dewpoint Depression Visibility Wind Speed Wind Dir Waves Ship Positions

Tetide

Last reported at 2015-Jan-26 15:17 UTC. Time now 2015-Jan-26 22:34 UTC.
Position N 41°05' E 013°33'.

Length 70 m; draft 3.6 m.

Type: Passenger vessel. MMSI: 247043100.

Date/timePositionNaut miles runAvg speedWind from/ knotsBaromVisibWave heightAir tempDewpointWater temp
2015-Jan-26 15:17N 41°05' E 013°33'1014.2
2015-Jan-26 14:34N 40°55' E 013°29'8 1.9
2015-Jan-26 10:22N 40°48' E 013°26'1213.7
2015-Jan-26 09:27N 40°60' E 013°30'4 0.2
2015-Jan-25 15:10N 41°04' E 013°32'914.3
2015-Jan-25 14:33N 40°55' E 013°29'8 2.5
2015-Jan-25 11:27N 40°48' E 013°26'0 0.1
2015-Jan-25 10:16N 40°48' E 013°26'1114.8
2015-Jan-25 09:29N 40°59' E 013°29'5 0.2
2015-Jan-24 15:06N 41°03' E 013°32'814.3
2015-Jan-24 14:33N 40°56' E 013°29'8 1.9
2015-Jan-24 10:17N 40°48' E 013°26'1214.1
2015-Jan-24 09:27N 40°59' E 013°30'1714.2
2015-Jan-24 08:17N 41°15' E 013°37'12 0.7
2015-Jan-23 15:10N 41°04' E 013°33'914.3
2015-Jan-23 14:33N 40°55' E 013°29'8 6.7
2015-Jan-23 13:24N 40°48' E 013°26'0 0.0
2015-Jan-23 12:30N 40°48' E 013°26'1 1.1
2015-Jan-23 11:31N 40°49' E 013°26'1515.0
2015-Jan-23 10:32N 41°03' E 013°32'0 0.0
2015-Jan-22 15:09N 41°03' E 013°32'914.2
2015-Jan-22 14:31N 40°54' E 013°29'7 3.4
2015-Jan-22 12:31N 40°48' E 013°26'0 0.0
2015-Jan-22 10:23N 40°48' E 013°26'1113.5
2015-Jan-22 09:33N 40°59' E 013°30'10 0.5
2015-Jan-21 15:24N 41°08' E 013°35'1315.0
2015-Jan-21 14:33N 40°56' E 013°29'8 2.7
2015-Jan-21 11:33N 40°48' E 013°26'0 0.0
2015-Jan-21 10:21N 40°48' E 013°26'1213.9
2015-Jan-21 09:29N 40°60' E 013°30'1614.8
2015-Jan-21 08:26N 41°14' E 013°37'1 0.4
2015-Jan-21 06:19N 41°15' E 013°37'0 0.0
2015-Jan-20 21:31N 41°15' E 013°37'10 1.6
2015-Jan-20 15:16N 41°05' E 013°34'1014.9
2015-Jan-20 14:33N 40°56' E 013°29'8 3.7
2015-Jan-20 12:25N 40°48' E 013°26'0 0.0
2015-Jan-20 11:33N 40°48' E 013°26'0 0.0
2015-Jan-20 10:22N 40°48' E 013°26'1214.0
2015-Jan-20 09:32N 40°59' E 013°30'7 0.4
2015-Jan-19 15:18N 41°06' E 013°34'1115.0
2015-Jan-19 14:33N 40°55' E 013°29'8 7.6
2015-Jan-19 13:32N 40°48' E 013°26'0 0.0
2015-Jan-19 12:32N 40°48' E 013°26'0 0.0
2015-Jan-19 11:29N 40°48' E 013°26'0 0.0
2015-Jan-19 10:32N 40°48' E 013°26'1311.5
2015-Jan-19 09:24N 41°01' E 013°31'1514.8
2015-Jan-19 08:24N 41°15' E 013°37'1 0.7
2015-Jan-19 07:15N 41°15' E 013°37'0 0.0
2015-Jan-18 21:28N 41°15' E 013°37'5 1.2
2015-Jan-18 17:07N 41°10' E 013°35'1314.6
2015-Jan-18 16:13N 40°58' E 013°30'1014.2
2015-Jan-18 15:31N 40°48' E 013°26'0 0.3
2015-Jan-18 14:17N 40°48' E 013°26'0 0.0
2015-Jan-18 12:15N 40°48' E 013°26'0 0.0
2015-Jan-18 11:05N 40°48' E 013°26'812.7
2015-Jan-18 10:30N 40°55' E 013°28'2015.0
2015-Jan-18 09:10N 41°14' E 013°37'1 0.1
2015-Jan-17 16:14N 41°15' E 013°37'1011.1
2015-Jan-17 15:20N 41°06' E 013°34'1114.4
2015-Jan-17 14:33N 40°55' E 013°29'7 1.8
2015-Jan-17 10:25N 40°48' E 013°26'1213.4
2015-Jan-17 09:30N 40°60' E 013°31'16 2.0
2015-Jan-17 01:20N 41°15' E 013°37'7 0.7
2015-Jan-16 15:29N 41°09' E 013°35'  

Dump ship's entire track history